sensor_id;sensor_type;location;lat;lon;timestamp;temperature;humidity
41427;DHT22;27171;51.812;19.514;2022-09-29T00:01:59;7.30;99.90
41427;DHT22;27171;51.812;19.514;2022-09-29T00:05:00;7.30;99.90
41427;DHT22;27171;51.812;19.514;2022-09-29T00:08:02;7.30;99.90
41427;DHT22;27171;51.812;19.514;2022-09-29T00:11:06;7.30;99.90
41427;DHT22;27171;51.812;19.514;2022-09-29T00:14:07;7.20;99.90
41427;DHT22;27171;51.812;19.514;2022-09-29T00:17:08;7.10;99.90
41427;DHT22;27171;51.812;19.514;2022-09-29T00:20:09;7.10;99.90
41427;DHT22;27171;51.812;19.514;2022-09-29T00:23:10;7.10;99.90
41427;DHT22;27171;51.812;19.514;2022-09-29T00:26:12;7.10;99.90
41427;DHT22;27171;51.812;19.514;2022-09-29T00:29:13;7.10;99.90
41427;DHT22;27171;51.812;19.514;2022-09-29T00:32:14;7.00;99.90
41427;DHT22;27171;51.812;19.514;2022-09-29T00:35:15;7.00;99.90
41427;DHT22;27171;51.812;19.514;2022-09-29T00:38:16;6.90;99.90
41427;DHT22;27171;51.812;19.514;2022-09-29T00:41:18;6.90;99.90
41427;DHT22;27171;51.812;19.514;2022-09-29T00:47:21;6.80;99.90
41427;DHT22;27171;51.812;19.514;2022-09-29T00:50:48;6.80;99.90
41427;DHT22;27171;51.812;19.514;2022-09-29T00:53:49;6.80;99.90
41427;DHT22;27171;51.812;19.514;2022-09-29T00:56:51;6.80;99.90
41427;DHT22;27171;51.812;19.514;2022-09-29T01:00:06;6.80;99.90
41427;DHT22;27171;51.812;19.514;2022-09-29T01:03:10;6.80;99.90
41427;DHT22;27171;51.812;19.514;2022-09-29T01:06:20;6.80;99.90
41427;DHT22;27171;51.812;19.514;2022-09-29T01:09:31;6.80;99.90
41427;DHT22;27171;51.812;19.514;2022-09-29T01:12:34;6.90;99.90
41427;DHT22;27171;51.812;19.514;2022-09-29T01:15:35;6.90;99.90
41427;DHT22;27171;51.812;19.514;2022-09-29T01:18:36;6.90;99.90
41427;DHT22;27171;51.812;19.514;2022-09-29T01:21:40;6.90;99.90
41427;DHT22;27171;51.812;19.514;2022-09-29T01:32:05;6.90;99.90
41427;DHT22;27171;51.812;19.514;2022-09-29T01:35:16;6.90;99.90
41427;DHT22;27171;51.812;19.514;2022-09-29T01:38:45;6.90;99.90
41427;DHT22;27171;51.812;19.514;2022-09-29T01:48:28;7.00;99.90
41427;DHT22;27171;51.812;19.514;2022-09-29T01:51:59;7.00;99.90
41427;DHT22;27171;51.812;19.514;2022-09-29T01:55:06;7.00;99.90
41427;DHT22;27171;51.812;19.514;2022-09-29T01:58:18;7.00;99.90
41427;DHT22;27171;51.812;19.514;2022-09-29T02:01:23;7.10;99.90
41427;DHT22;27171;51.812;19.514;2022-09-29T02:04:32;7.00;99.90
41427;DHT22;27171;51.812;19.514;2022-09-29T02:07:40;7.10;99.90
41427;DHT22;27171;51.812;19.514;2022-09-29T02:11:06;7.00;99.90
41427;DHT22;27171;51.812;19.514;2022-09-29T02:14:11;7.00;99.90
41427;DHT22;27171;51.812;19.514;2022-09-29T02:17:38;7.00;99.90
41427;DHT22;27171;51.812;19.514;2022-09-29T02:20:40;7.00;99.90
41427;DHT22;27171;51.812;19.514;2022-09-29T02:23:42;6.90;99.90
41427;DHT22;27171;51.812;19.514;2022-09-29T02:26:43;6.90;99.90
41427;DHT22;27171;51.812;19.514;2022-09-29T02:29:44;6.90;99.90
41427;DHT22;27171;51.812;19.514;2022-09-29T02:32:46;6.90;99.90
41427;DHT22;27171;51.812;19.514;2022-09-29T02:50:13;6.90;99.90
41427;DHT22;27171;51.812;19.514;2022-09-29T02:53:42;6.90;99.90
41427;DHT22;27171;51.812;19.514;2022-09-29T03:00:07;6.80;99.90
41427;DHT22;27171;51.812;19.514;2022-09-29T03:03:07;6.80;99.90
41427;DHT22;27171;51.812;19.514;2022-09-29T03:06:09;6.80;99.90
41427;DHT22;27171;51.812;19.514;2022-09-29T03:09:11;6.90;99.90
41427;DHT22;27171;51.812;19.514;2022-09-29T03:12:12;6.80;99.90
41427;DHT22;27171;51.812;19.514;2022-09-29T03:15:13;6.80;99.90
41427;DHT22;27171;51.812;19.514;2022-09-29T03:18:14;6.90;99.90
41427;DHT22;27171;51.812;19.514;2022-09-29T03:21:15;6.80;99.90
41427;DHT22;27171;51.812;19.514;2022-09-29T03:24:16;6.80;99.90
41427;DHT22;27171;51.812;19.514;2022-09-29T03:27:17;6.80;99.90
41427;DHT22;27171;51.812;19.514;2022-09-29T03:30:18;6.80;99.90
41427;DHT22;27171;51.812;19.514;2022-09-29T03:33:20;6.80;99.90
41427;DHT22;27171;51.812;19.514;2022-09-29T03:36:21;6.80;99.90
41427;DHT22;27171;51.812;19.514;2022-09-29T03:39:22;6.80;99.90
41427;DHT22;27171;51.812;19.514;2022-09-29T03:42:23;6.80;99.90
41427;DHT22;27171;51.812;19.514;2022-09-29T03:45:25;6.80;99.90
41427;DHT22;27171;51.812;19.514;2022-09-29T03:48:25;6.80;99.90
41427;DHT22;27171;51.812;19.514;2022-09-29T03:51:27;6.70;99.90
41427;DHT22;27171;51.812;19.514;2022-09-29T03:54:28;6.70;99.90
41427;DHT22;27171;51.812;19.514;2022-09-29T03:57:29;6.70;99.90
41427;DHT22;27171;51.812;19.514;2022-09-29T04:00:30;6.70;99.90
41427;DHT22;27171;51.812;19.514;2022-09-29T04:03:31;6.70;99.90
41427;DHT22;27171;51.812;19.514;2022-09-29T04:06:32;6.60;99.90
41427;DHT22;27171;51.812;19.514;2022-09-29T04:09:33;6.60;99.90
41427;DHT22;27171;51.812;19.514;2022-09-29T04:12:34;6.70;99.90
41427;DHT22;27171;51.812;19.514;2022-09-29T04:15:35;6.70;99.90
41427;DHT22;27171;51.812;19.514;2022-09-29T04:18:37;6.70;99.90
41427;DHT22;27171;51.812;19.514;2022-09-29T04:21:37;6.70;99.90
41427;DHT22;27171;51.812;19.514;2022-09-29T04:24:38;6.70;99.90
41427;DHT22;27171;51.812;19.514;2022-09-29T04:27:39;6.70;99.90
41427;DHT22;27171;51.812;19.514;2022-09-29T04:30:41;6.70;99.90
41427;DHT22;27171;51.812;19.514;2022-09-29T04:33:42;6.70;99.90
41427;DHT22;27171;51.812;19.514;2022-09-29T04:36:42;6.60;99.90
41427;DHT22;27171;51.812;19.514;2022-09-29T04:39:44;6.60;99.90
41427;DHT22;27171;51.812;19.514;2022-09-29T04:42:45;6.60;99.90
41427;DHT22;27171;51.812;19.514;2022-09-29T04:45:46;6.70;99.90
41427;DHT22;27171;51.812;19.514;2022-09-29T04:48:47;6.60;99.90
41427;DHT22;27171;51.812;19.514;2022-09-29T04:51:48;6.60;99.90
41427;DHT22;27171;51.812;19.514;2022-09-29T04:54:49;6.70;99.90
41427;DHT22;27171;51.812;19.514;2022-09-29T04:57:50;6.70;99.90
41427;DHT22;27171;51.812;19.514;2022-09-29T05:00:50;6.60;99.90
41427;DHT22;27171;51.812;19.514;2022-09-29T05:03:52;6.60;99.90
41427;DHT22;27171;51.812;19.514;2022-09-29T05:06:53;6.50;99.90
41427;DHT22;27171;51.812;19.514;2022-09-29T05:09:54;6.50;99.90
41427;DHT22;27171;51.812;19.514;2022-09-29T05:12:55;6.60;99.90
41427;DHT22;27171;51.812;19.514;2022-09-29T05:15:56;6.50;99.90
41427;DHT22;27171;51.812;19.514;2022-09-29T05:18:58;6.50;99.90
41427;DHT22;27171;51.812;19.514;2022-09-29T05:21:59;6.50;99.90
41427;DHT22;27171;51.812;19.514;2022-09-29T05:25:00;6.50;99.90
41427;DHT22;27171;51.812;19.514;2022-09-29T05:28:02;6.50;99.90
41427;DHT22;27171;51.812;19.514;2022-09-29T05:31:05;6.60;99.90
41427;DHT22;27171;51.812;19.514;2022-09-29T05:34:06;6.60;99.90
41427;DHT22;27171;51.812;19.514;2022-09-29T05:37:08;6.60;99.90
41427;DHT22;27171;51.812;19.514;2022-09-29T05:40:09;6.70;99.90
41427;DHT22;27171;51.812;19.514;2022-09-29T05:43:10;6.70;99.90
41427;DHT22;27171;51.812;19.514;2022-09-29T05:46:11;6.70;99.90
41427;DHT22;27171;51.812;19.514;2022-09-29T05:49:12;6.70;99.90
41427;DHT22;27171;51.812;19.514;2022-09-29T05:52:13;6.70;99.90
41427;DHT22;27171;51.812;19.514;2022-09-29T05:55:14;6.80;99.90
41427;DHT22;27171;51.812;19.514;2022-09-29T05:58:16;6.80;99.90
41427;DHT22;27171;51.812;19.514;2022-09-29T06:01:19;6.80;99.90
41427;DHT22;27171;51.812;19.514;2022-09-29T06:04:20;6.80;99.90
41427;DHT22;27171;51.812;19.514;2022-09-29T06:07:21;6.90;99.90
41427;DHT22;27171;51.812;19.514;2022-09-29T06:10:22;6.90;99.90
41427;DHT22;27171;51.812;19.514;2022-09-29T06:13:24;7.00;99.90
41427;DHT22;27171;51.812;19.514;2022-09-29T06:16:25;7.00;99.90
41427;DHT22;27171;51.812;19.514;2022-09-29T06:19:27;7.00;99.90
41427;DHT22;27171;51.812;19.514;2022-09-29T06:22:28;7.10;99.90
41427;DHT22;27171;51.812;19.514;2022-09-29T06:25:29;7.20;99.90
41427;DHT22;27171;51.812;19.514;2022-09-29T06:28:31;7.20;99.90
41427;DHT22;27171;51.812;19.514;2022-09-29T06:31:32;7.30;99.90
41427;DHT22;27171;51.812;19.514;2022-09-29T06:34:33;7.30;99.90
41427;DHT22;27171;51.812;19.514;2022-09-29T06:37:34;7.40;99.90
41427;DHT22;27171;51.812;19.514;2022-09-29T06:40:35;7.50;99.90
41427;DHT22;27171;51.812;19.514;2022-09-29T06:43:36;7.50;99.90
41427;DHT22;27171;51.812;19.514;2022-09-29T06:46:37;7.60;99.90
41427;DHT22;27171;51.812;19.514;2022-09-29T06:49:38;7.60;99.90
41427;DHT22;27171;51.812;19.514;2022-09-29T06:52:39;7.70;99.90
41427;DHT22;27171;51.812;19.514;2022-09-29T06:55:41;7.70;99.90
41427;DHT22;27171;51.812;19.514;2022-09-29T06:58:42;7.80;99.90
41427;DHT22;27171;51.812;19.514;2022-09-29T07:01:44;7.80;99.90
41427;DHT22;27171;51.812;19.514;2022-09-29T07:04:45;7.90;99.90
41427;DHT22;27171;51.812;19.514;2022-09-29T07:07:49;7.90;99.90
41427;DHT22;27171;51.812;19.514;2022-09-29T07:10:50;7.90;99.90
41427;DHT22;27171;51.812;19.514;2022-09-29T07:13:51;8.10;99.90
41427;DHT22;27171;51.812;19.514;2022-09-29T07:16:53;8.10;99.90
41427;DHT22;27171;51.812;19.514;2022-09-29T07:19:54;8.20;99.90
41427;DHT22;27171;51.812;19.514;2022-09-29T07:22:55;8.30;99.90
41427;DHT22;27171;51.812;19.514;2022-09-29T07:25:56;8.30;99.90
41427;DHT22;27171;51.812;19.514;2022-09-29T07:28:57;8.40;99.90
41427;DHT22;27171;51.812;19.514;2022-09-29T07:31:58;8.40;99.90
41427;DHT22;27171;51.812;19.514;2022-09-29T07:34:59;8.50;99.90
41427;DHT22;27171;51.812;19.514;2022-09-29T07:38:00;8.60;99.90
41427;DHT22;27171;51.812;19.514;2022-09-29T07:41:07;8.60;99.90
41427;DHT22;27171;51.812;19.514;2022-09-29T07:44:08;8.50;99.90
41427;DHT22;27171;51.812;19.514;2022-09-29T07:47:09;8.60;99.90
41427;DHT22;27171;51.812;19.514;2022-09-29T07:50:11;8.60;99.90
41427;DHT22;27171;51.812;19.514;2022-09-29T07:53:12;8.60;99.90
41427;DHT22;27171;51.812;19.514;2022-09-29T07:56:18;8.60;99.90
41427;DHT22;27171;51.812;19.514;2022-09-29T07:59:20;8.50;99.90
41427;DHT22;27171;51.812;19.514;2022-09-29T08:02:21;8.60;99.90
41427;DHT22;27171;51.812;19.514;2022-09-29T08:05:22;8.60;99.90
41427;DHT22;27171;51.812;19.514;2022-09-29T08:08:25;8.60;99.90
41427;DHT22;27171;51.812;19.514;2022-09-29T08:11:26;8.70;99.90
41427;DHT22;27171;51.812;19.514;2022-09-29T08:14:27;8.80;99.90
41427;DHT22;27171;51.812;19.514;2022-09-29T08:17:28;8.90;99.90
41427;DHT22;27171;51.812;19.514;2022-09-29T08:20:29;8.90;99.90
41427;DHT22;27171;51.812;19.514;2022-09-29T08:23:35;9.00;99.90
41427;DHT22;27171;51.812;19.514;2022-09-29T08:26:36;9.00;99.90
41427;DHT22;27171;51.812;19.514;2022-09-29T08:29:38;9.00;99.90
41427;DHT22;27171;51.812;19.514;2022-09-29T08:32:38;9.00;99.90
41427;DHT22;27171;51.812;19.514;2022-09-29T08:35:40;9.10;99.90
41427;DHT22;27171;51.812;19.514;2022-09-29T08:38:46;9.20;99.90
41427;DHT22;27171;51.812;19.514;2022-09-29T08:45:13;9.50;99.90
41427;DHT22;27171;51.812;19.514;2022-09-29T08:48:23;9.60;99.90
41427;DHT22;27171;51.812;19.514;2022-09-29T08:51:31;9.70;99.90
41427;DHT22;27171;51.812;19.514;2022-09-29T08:54:35;9.70;99.90
41427;DHT22;27171;51.812;19.514;2022-09-29T08:57:38;9.80;99.90
41427;DHT22;27171;51.812;19.514;2022-09-29T09:07:15;10.00;99.90
41427;DHT22;27171;51.812;19.514;2022-09-29T09:14:04;10.20;99.90
41427;DHT22;27171;51.812;19.514;2022-09-29T09:21:17;10.40;99.90
41427;DHT22;27171;51.812;19.514;2022-09-29T09:24:31;10.40;99.90
41427;DHT22;27171;51.812;19.514;2022-09-29T09:27:41;10.50;99.90
41427;DHT22;27171;51.812;19.514;2022-09-29T09:37:27;10.90;99.90
41427;DHT22;27171;51.812;19.514;2022-09-29T09:40:40;11.10;99.90
41427;DHT22;27171;51.812;19.514;2022-09-29T09:43:52;11.20;99.90
41427;DHT22;27171;51.812;19.514;2022-09-29T09:54:55;11.50;99.90
41427;DHT22;27171;51.812;19.514;2022-09-29T10:01:05;11.40;99.90
41427;DHT22;27171;51.812;19.514;2022-09-29T10:04:10;11.40;99.90
41427;DHT22;27171;51.812;19.514;2022-09-29T10:07:12;11.50;99.90
41427;DHT22;27171;51.812;19.514;2022-09-29T10:10:25;11.40;99.90
41427;DHT22;27171;51.812;19.514;2022-09-29T10:13:28;11.40;99.90
41427;DHT22;27171;51.812;19.514;2022-09-29T10:16:37;11.50;99.90
41427;DHT22;27171;51.812;19.514;2022-09-29T10:20:00;11.60;99.90
41427;DHT22;27171;51.812;19.514;2022-09-29T10:26:36;12.00;99.90
41427;DHT22;27171;51.812;19.514;2022-09-29T10:29:41;12.30;99.90
41427;DHT22;27171;51.812;19.514;2022-09-29T10:32:43;12.50;99.90
41427;DHT22;27171;51.812;19.514;2022-09-29T10:35:47;12.50;99.90
41427;DHT22;27171;51.812;19.514;2022-09-29T10:38:50;12.60;99.90
41427;DHT22;27171;51.812;19.514;2022-09-29T10:41:52;12.70;99.90
41427;DHT22;27171;51.812;19.514;2022-09-29T10:48:13;12.80;99.90
41427;DHT22;27171;51.812;19.514;2022-09-29T10:51:19;12.90;99.90
41427;DHT22;27171;51.812;19.514;2022-09-29T10:54:26;13.10;99.90
41427;DHT22;27171;51.812;19.514;2022-09-29T10:57:30;13.20;99.90
41427;DHT22;27171;51.812;19.514;2022-09-29T11:00:37;13.30;99.90
41427;DHT22;27171;51.812;19.514;2022-09-29T11:03:54;13.40;99.90
41427;DHT22;27171;51.812;19.514;2022-09-29T11:07:03;13.50;99.90
41427;DHT22;27171;51.812;19.514;2022-09-29T11:10:37;13.70;99.90
41427;DHT22;27171;51.812;19.514;2022-09-29T11:13:39;13.90;99.90
41427;DHT22;27171;51.812;19.514;2022-09-29T11:16:52;14.00;99.90
41427;DHT22;27171;51.812;19.514;2022-09-29T11:20:00;14.00;99.90
41427;DHT22;27171;51.812;19.514;2022-09-29T11:33:35;14.10;98.70
41427;DHT22;27171;51.812;19.514;2022-09-29T11:40:08;14.10;99.50
41427;DHT22;27171;51.812;19.514;2022-09-29T11:47:12;14.10;99.90
41427;DHT22;27171;51.812;19.514;2022-09-29T11:57:01;14.70;99.90
41427;DHT22;27171;51.812;19.514;2022-09-29T12:00:12;14.80;99.30
41427;DHT22;27171;51.812;19.514;2022-09-29T12:06:54;15.20;98.80
41427;DHT22;27171;51.812;19.514;2022-09-29T12:16:31;15.50;98.40
41427;DHT22;27171;51.812;19.514;2022-09-29T12:19:36;15.50;98.30
41427;DHT22;27171;51.812;19.514;2022-09-29T12:22:37;15.40;97.40
41427;DHT22;27171;51.812;19.514;2022-09-29T12:26:01;15.10;96.70
41427;DHT22;27171;51.812;19.514;2022-09-29T12:29:31;14.90;96.70
41427;DHT22;27171;51.812;19.514;2022-09-29T12:32:39;14.70;96.80
41427;DHT22;27171;51.812;19.514;2022-09-29T12:52:19;15.30;96.70
41427;DHT22;27171;51.812;19.514;2022-09-29T12:55:37;15.40;94.10
41427;DHT22;27171;51.812;19.514;2022-09-29T12:58:59;15.60;94.10
41427;DHT22;27171;51.812;19.514;2022-09-29T13:05:50;16.00;93.00
41427;DHT22;27171;51.812;19.514;2022-09-29T13:22:35;16.00;91.30
41427;DHT22;27171;51.812;19.514;2022-09-29T13:26:12;15.80;91.50
41427;DHT22;27171;51.812;19.514;2022-09-29T13:29:21;15.70;92.00
41427;DHT22;27171;51.812;19.514;2022-09-29T13:32:23;15.50;92.90
41427;DHT22;27171;51.812;19.514;2022-09-29T13:35:25;15.30;93.00
41427;DHT22;27171;51.812;19.514;2022-09-29T13:38:35;15.20;93.40
41427;DHT22;27171;51.812;19.514;2022-09-29T13:41:37;15.00;93.40
41427;DHT22;27171;51.812;19.514;2022-09-29T13:44:38;14.80;93.70
41427;DHT22;27171;51.812;19.514;2022-09-29T13:47:44;14.60;93.90
41427;DHT22;27171;51.812;19.514;2022-09-29T13:50:52;14.50;94.50
41427;DHT22;27171;51.812;19.514;2022-09-29T13:54:27;14.30;94.70
41427;DHT22;27171;51.812;19.514;2022-09-29T13:57:28;14.10;95.20
41427;DHT22;27171;51.812;19.514;2022-09-29T14:00:30;14.00;95.70
41427;DHT22;27171;51.812;19.514;2022-09-29T14:03:34;14.10;95.90
41427;DHT22;27171;51.812;19.514;2022-09-29T14:06:47;14.20;95.80
41427;DHT22;27171;51.812;19.514;2022-09-29T14:09:49;14.30;96.20
41427;DHT22;27171;51.812;19.514;2022-09-29T14:13:16;14.20;95.60
41427;DHT22;27171;51.812;19.514;2022-09-29T14:19:35;14.10;95.90
41427;DHT22;27171;51.812;19.514;2022-09-29T14:28:46;13.90;96.50
41427;DHT22;27171;51.812;19.514;2022-09-29T14:31:50;13.80;97.10
41427;DHT22;27171;51.812;19.514;2022-09-29T14:34:55;13.80;97.30
41427;DHT22;27171;51.812;19.514;2022-09-29T14:41:27;13.70;97.90
41427;DHT22;27171;51.812;19.514;2022-09-29T14:44:33;13.60;98.50
41427;DHT22;27171;51.812;19.514;2022-09-29T14:50:52;13.50;99.20
41427;DHT22;27171;51.812;19.514;2022-09-29T14:54:02;13.40;99.60
41427;DHT22;27171;51.812;19.514;2022-09-29T15:00:41;13.30;99.90
41427;DHT22;27171;51.812;19.514;2022-09-29T15:03:52;13.30;99.90
41427;DHT22;27171;51.812;19.514;2022-09-29T15:06:53;13.20;99.90
41427;DHT22;27171;51.812;19.514;2022-09-29T15:09:58;13.10;99.90
41427;DHT22;27171;51.812;19.514;2022-09-29T15:26:31;12.90;99.90
41427;DHT22;27171;51.812;19.514;2022-09-29T15:29:32;12.90;99.90
41427;DHT22;27171;51.812;19.514;2022-09-29T15:32:33;12.90;99.90
41427;DHT22;27171;51.812;19.514;2022-09-29T15:35:39;12.80;99.90
41427;DHT22;27171;51.812;19.514;2022-09-29T15:38:41;12.80;99.90
41427;DHT22;27171;51.812;19.514;2022-09-29T15:41:42;12.70;99.90
41427;DHT22;27171;51.812;19.514;2022-09-29T15:45:15;12.60;99.90
41427;DHT22;27171;51.812;19.514;2022-09-29T15:48:17;12.50;99.90
41427;DHT22;27171;51.812;19.514;2022-09-29T15:51:18;12.30;99.90
41427;DHT22;27171;51.812;19.514;2022-09-29T15:54:19;12.20;99.90
41427;DHT22;27171;51.812;19.514;2022-09-29T15:57:30;12.10;99.90
41427;DHT22;27171;51.812;19.514;2022-09-29T16:03:48;12.00;99.90
41427;DHT22;27171;51.812;19.514;2022-09-29T16:06:50;11.80;99.90
41427;DHT22;27171;51.812;19.514;2022-09-29T16:09:52;11.70;99.90
41427;DHT22;27171;51.812;19.514;2022-09-29T16:13:04;11.60;99.90
41427;DHT22;27171;51.812;19.514;2022-09-29T16:16:10;11.50;99.90
41427;DHT22;27171;51.812;19.514;2022-09-29T16:19:32;11.30;99.90
41427;DHT22;27171;51.812;19.514;2022-09-29T16:22:33;11.10;99.90
41427;DHT22;27171;51.812;19.514;2022-09-29T16:25:35;11.00;99.90
41427;DHT22;27171;51.812;19.514;2022-09-29T16:28:38;10.70;99.90
41427;DHT22;27171;51.812;19.514;2022-09-29T16:31:42;10.60;99.90
41427;DHT22;27171;51.812;19.514;2022-09-29T16:34:43;10.40;99.90
41427;DHT22;27171;51.812;19.514;2022-09-29T16:37:44;10.30;99.90
41427;DHT22;27171;51.812;19.514;2022-09-29T16:40:46;10.10;99.90
41427;DHT22;27171;51.812;19.514;2022-09-29T16:43:47;9.90;99.90
41427;DHT22;27171;51.812;19.514;2022-09-29T16:46:54;9.80;99.90
41427;DHT22;27171;51.812;19.514;2022-09-29T16:50:08;9.70;99.90
41427;DHT22;27171;51.812;19.514;2022-09-29T16:53:29;9.50;99.90
41427;DHT22;27171;51.812;19.514;2022-09-29T16:56:30;9.40;99.90
41427;DHT22;27171;51.812;19.514;2022-09-29T16:59:32;9.30;99.90
41427;DHT22;27171;51.812;19.514;2022-09-29T17:02:33;9.20;99.90
41427;DHT22;27171;51.812;19.514;2022-09-29T17:05:37;9.10;99.90
41427;DHT22;27171;51.812;19.514;2022-09-29T17:08:41;8.90;99.90
41427;DHT22;27171;51.812;19.514;2022-09-29T17:11:42;8.80;99.90
41427;DHT22;27171;51.812;19.514;2022-09-29T17:14:43;8.70;99.90
41427;DHT22;27171;51.812;19.514;2022-09-29T17:17:46;8.60;99.90
41427;DHT22;27171;51.812;19.514;2022-09-29T17:20:47;8.50;99.90
41427;DHT22;27171;51.812;19.514;2022-09-29T17:23:48;8.50;99.90
41427;DHT22;27171;51.812;19.514;2022-09-29T17:26:49;8.40;99.90
41427;DHT22;27171;51.812;19.514;2022-09-29T17:29:50;8.30;99.90
41427;DHT22;27171;51.812;19.514;2022-09-29T17:32:54;8.20;99.90
41427;DHT22;27171;51.812;19.514;2022-09-29T17:35:56;8.10;99.90
41427;DHT22;27171;51.812;19.514;2022-09-29T17:38:57;8.10;99.90
41427;DHT22;27171;51.812;19.514;2022-09-29T17:41:57;8.00;99.90
41427;DHT22;27171;51.812;19.514;2022-09-29T17:44:58;8.00;99.90
41427;DHT22;27171;51.812;19.514;2022-09-29T17:48:00;8.00;99.90
41427;DHT22;27171;51.812;19.514;2022-09-29T17:51:01;7.90;99.90
41427;DHT22;27171;51.812;19.514;2022-09-29T17:54:02;7.90;99.90
41427;DHT22;27171;51.812;19.514;2022-09-29T17:57:03;7.80;99.90
41427;DHT22;27171;51.812;19.514;2022-09-29T18:00:12;7.80;99.90
41427;DHT22;27171;51.812;19.514;2022-09-29T18:03:15;7.80;99.90
41427;DHT22;27171;51.812;19.514;2022-09-29T18:06:17;7.70;99.90
41427;DHT22;27171;51.812;19.514;2022-09-29T18:09:18;7.70;99.90
41427;DHT22;27171;51.812;19.514;2022-09-29T18:12:19;7.60;99.90
41427;DHT22;27171;51.812;19.514;2022-09-29T18:15:20;7.60;99.90
41427;DHT22;27171;51.812;19.514;2022-09-29T18:18:21;7.50;99.90
41427;DHT22;27171;51.812;19.514;2022-09-29T18:21:23;7.40;99.90
41427;DHT22;27171;51.812;19.514;2022-09-29T18:24:23;7.30;99.90
41427;DHT22;27171;51.812;19.514;2022-09-29T18:27:24;7.30;99.90
41427;DHT22;27171;51.812;19.514;2022-09-29T18:30:30;7.20;99.90
41427;DHT22;27171;51.812;19.514;2022-09-29T18:33:32;7.10;99.90
41427;DHT22;27171;51.812;19.514;2022-09-29T18:36:33;7.10;99.90
41427;DHT22;27171;51.812;19.514;2022-09-29T18:39:34;7.10;99.90
41427;DHT22;27171;51.812;19.514;2022-09-29T18:42:43;7.00;99.90
41427;DHT22;27171;51.812;19.514;2022-09-29T18:45:44;7.00;99.90
41427;DHT22;27171;51.812;19.514;2022-09-29T18:48:45;6.90;99.90
41427;DHT22;27171;51.812;19.514;2022-09-29T18:51:46;6.80;99.90
41427;DHT22;27171;51.812;19.514;2022-09-29T18:54:47;6.70;99.90
41427;DHT22;27171;51.812;19.514;2022-09-29T18:57:48;6.60;99.90
41427;DHT22;27171;51.812;19.514;2022-09-29T19:00:50;6.50;99.90
41427;DHT22;27171;51.812;19.514;2022-09-29T19:03:51;6.50;99.90
41427;DHT22;27171;51.812;19.514;2022-09-29T19:06:52;6.40;99.90
41427;DHT22;27171;51.812;19.514;2022-09-29T19:09:53;6.40;99.90
41427;DHT22;27171;51.812;19.514;2022-09-29T19:12:54;6.40;99.90
41427;DHT22;27171;51.812;19.514;2022-09-29T19:15:56;6.40;99.90
41427;DHT22;27171;51.812;19.514;2022-09-29T19:18:57;6.40;99.90
41427;DHT22;27171;51.812;19.514;2022-09-29T19:21:57;6.40;99.90
41427;DHT22;27171;51.812;19.514;2022-09-29T19:24:58;6.40;99.90
41427;DHT22;27171;51.812;19.514;2022-09-29T19:27:59;6.30;99.90
41427;DHT22;27171;51.812;19.514;2022-09-29T19:31:05;6.30;99.90
41427;DHT22;27171;51.812;19.514;2022-09-29T19:34:07;6.30;99.90
41427;DHT22;27171;51.812;19.514;2022-09-29T19:37:07;6.30;99.90
41427;DHT22;27171;51.812;19.514;2022-09-29T19:40:10;6.30;99.90
41427;DHT22;27171;51.812;19.514;2022-09-29T19:43:13;6.30;99.90
41427;DHT22;27171;51.812;19.514;2022-09-29T19:46:14;6.30;99.90
41427;DHT22;27171;51.812;19.514;2022-09-29T19:49:15;6.30;99.90
41427;DHT22;27171;51.812;19.514;2022-09-29T19:52:16;6.20;99.90
41427;DHT22;27171;51.812;19.514;2022-09-29T19:55:17;6.20;99.90
41427;DHT22;27171;51.812;19.514;2022-09-29T19:58:18;6.10;99.90
41427;DHT22;27171;51.812;19.514;2022-09-29T20:01:19;6.10;99.90
41427;DHT22;27171;51.812;19.514;2022-09-29T20:04:21;6.00;99.90
41427;DHT22;27171;51.812;19.514;2022-09-29T20:07:22;6.00;99.90
41427;DHT22;27171;51.812;19.514;2022-09-29T20:10:23;5.90;99.90
41427;DHT22;27171;51.812;19.514;2022-09-29T20:13:25;5.90;99.90
41427;DHT22;27171;51.812;19.514;2022-09-29T20:16:26;5.90;99.90
41427;DHT22;27171;51.812;19.514;2022-09-29T20:19:27;5.90;99.90
41427;DHT22;27171;51.812;19.514;2022-09-29T20:22:28;5.80;99.90
41427;DHT22;27171;51.812;19.514;2022-09-29T20:25:29;5.80;99.90
41427;DHT22;27171;51.812;19.514;2022-09-29T20:28:30;5.80;99.90
41427;DHT22;27171;51.812;19.514;2022-09-29T20:31:31;5.70;99.90
41427;DHT22;27171;51.812;19.514;2022-09-29T20:34:32;5.70;99.90
41427;DHT22;27171;51.812;19.514;2022-09-29T20:37:33;5.70;99.90
41427;DHT22;27171;51.812;19.514;2022-09-29T20:40:34;5.60;99.90
41427;DHT22;27171;51.812;19.514;2022-09-29T20:43:35;5.60;99.90
41427;DHT22;27171;51.812;19.514;2022-09-29T20:46:36;5.50;99.90
41427;DHT22;27171;51.812;19.514;2022-09-29T20:49:37;5.50;99.90
41427;DHT22;27171;51.812;19.514;2022-09-29T20:52:38;5.50;99.90
41427;DHT22;27171;51.812;19.514;2022-09-29T20:55:39;5.50;99.90
41427;DHT22;27171;51.812;19.514;2022-09-29T20:58:44;5.40;99.90
41427;DHT22;27171;51.812;19.514;2022-09-29T21:01:45;5.40;99.90
41427;DHT22;27171;51.812;19.514;2022-09-29T21:04:46;5.40;99.90
41427;DHT22;27171;51.812;19.514;2022-09-29T21:07:46;5.40;99.90
41427;DHT22;27171;51.812;19.514;2022-09-29T21:10:47;5.40;99.90
41427;DHT22;27171;51.812;19.514;2022-09-29T21:13:49;5.30;99.90
41427;DHT22;27171;51.812;19.514;2022-09-29T21:16:50;5.30;99.90
41427;DHT22;27171;51.812;19.514;2022-09-29T21:19:51;5.30;99.90
41427;DHT22;27171;51.812;19.514;2022-09-29T21:22:52;5.30;99.90
41427;DHT22;27171;51.812;19.514;2022-09-29T21:26:00;5.30;99.90
41427;DHT22;27171;51.812;19.514;2022-09-29T21:29:01;5.30;99.90
41427;DHT22;27171;51.812;19.514;2022-09-29T21:32:03;5.30;99.90
41427;DHT22;27171;51.812;19.514;2022-09-29T21:35:04;5.30;99.90
41427;DHT22;27171;51.812;19.514;2022-09-29T21:38:05;5.30;99.90
41427;DHT22;27171;51.812;19.514;2022-09-29T21:44:09;5.30;99.90
41427;DHT22;27171;51.812;19.514;2022-09-29T21:47:10;5.40;99.90
41427;DHT22;27171;51.812;19.514;2022-09-29T21:50:11;5.30;99.90
41427;DHT22;27171;51.812;19.514;2022-09-29T21:53:12;5.30;99.90
41427;DHT22;27171;51.812;19.514;2022-09-29T21:56:14;5.40;99.90
41427;DHT22;27171;51.812;19.514;2022-09-29T21:59:16;5.30;99.90
41427;DHT22;27171;51.812;19.514;2022-09-29T22:02:17;5.30;99.90
41427;DHT22;27171;51.812;19.514;2022-09-29T22:05:18;5.30;99.90
41427;DHT22;27171;51.812;19.514;2022-09-29T22:08:19;5.30;99.90
41427;DHT22;27171;51.812;19.514;2022-09-29T22:11:22;5.30;99.90
41427;DHT22;27171;51.812;19.514;2022-09-29T22:14:23;5.30;99.90
41427;DHT22;27171;51.812;19.514;2022-09-29T22:17:24;5.30;99.90
41427;DHT22;27171;51.812;19.514;2022-09-29T22:20:25;5.30;99.90
41427;DHT22;27171;51.812;19.514;2022-09-29T22:23:26;5.30;99.90